Time;durP1;ratioP1;P1;durP2;ratioP2;P2;SDS_P1;SDS_P2;PMS_P1;PMS_P2;Temp;Humidity;BMP_temperature;BMP_pressure;BME280_temperature;BME280_humidity;BME280_pressure;Samples;Min_cycle;Max_cycle;Signal;HPM_P1;HPM_P2
2022/05/14 00:01:10;;;;;;;12.13;4.17;;;12.30;99.90;;;;;;5069787;28;20870;-63
2022/05/14 00:03:38;;;;;;;8.53;4.03;;;12.20;99.90;;;;;;5068952;28;20515;-70
2022/05/14 00:06:06;;;;;;;6.50;4.53;;;12.10;99.90;;;;;;5070139;28;20174;-70
2022/05/14 00:08:32;;;;;;;9.20;3.90;;;12.20;99.90;;;;;;5069177;28;20424;-69
2022/05/14 00:13:43;;;;;;;13.27;6.03;;;12.10;99.90;;;;;;5055016;28;20551;-69
2022/05/14 00:16:10;;;;;;;8.10;4.23;;;12.10;99.90;;;;;;5058561;28;20438;-70
2022/05/14 00:18:36;;;;;;;9.13;5.43;;;12.00;99.90;;;;;;5068765;28;20433;-70
2022/05/14 00:21:03;;;;;;;8.43;5.10;;;12.00;99.90;;;;;;5069808;28;20401;-70
2022/05/14 00:23:28;;;;;;;8.40;4.10;;;12.00;99.90;;;;;;5068781;28;20407;-70
2022/05/14 00:25:54;;;;;;;8.53;4.80;;;12.10;99.90;;;;;;5069079;27;20440;-62
2022/05/14 00:28:20;;;;;;;17.00;4.70;;;12.10;99.90;;;;;;5068947;27;20197;-62
2022/05/14 00:30:47;;;;;;;4.87;3.47;;;12.00;99.90;;;;;;5069907;28;20198;-62
2022/05/14 00:33:12;;;;;;;16.13;4.33;;;11.90;99.90;;;;;;5068086;28;20403;-68
2022/05/14 00:35:38;;;;;;;16.20;4.53;;;11.90;99.90;;;;;;5069488;27;20505;-62
2022/05/14 00:38:05;;;;;;;4.97;4.00;;;11.90;99.90;;;;;;5069693;28;20186;-70
2022/05/14 00:40:37;;;;;;;8.00;4.53;;;11.90;99.90;;;;;;5072071;28;20432;-69
2022/05/14 00:43:03;;;;;;;11.87;4.20;;;11.90;99.90;;;;;;5073414;28;20428;-62
2022/05/14 00:45:34;;;;;;;19.90;5.33;;;11.90;99.90;;;;;;5073389;28;20397;-63
2022/05/14 00:48:01;;;;;;;5.33;4.83;;;12.00;99.90;;;;;;5072438;28;20412;-62
2022/05/14 00:50:43;;;;;;;9.43;5.37;;;12.00;99.90;;;;;;5071553;28;20812;-62
2022/05/14 00:53:08;;;;;;;7.53;4.47;;;12.00;99.90;;;;;;5053433;28;20411;-63
2022/05/14 00:55:36;;;;;;;5.43;4.37;;;12.00;99.90;;;;;;5053058;28;20420;-62
2022/05/14 00:58:02;;;;;;;6.67;4.13;;;11.90;99.90;;;;;;5052128;28;20211;-69
2022/05/14 01:00:29;;;;;;;4.90;4.43;;;12.00;99.90;;;;;;5064497;28;20428;-70
2022/05/14 01:02:55;;;;;;;7.53;5.20;;;11.90;99.90;;;;;;5073134;28;20401;-62
2022/05/14 01:05:21;;;;;;;10.57;5.53;;;11.90;99.90;;;;;;5072825;28;20391;-62
2022/05/14 01:07:49;;;;;;;8.43;5.00;;;12.00;99.90;;;;;;5071854;28;20491;-63
2022/05/14 01:10:17;;;;;;;5.73;4.27;;;11.90;99.90;;;;;;5061659;28;20411;-62
2022/05/14 01:13:02;;;;;;;7.97;5.10;;;11.90;99.90;;;;;;5053326;28;20746;-70
2022/05/14 01:16:01;;;;;;;7.60;4.77;;;11.90;99.90;;;;;;5051397;28;20384;-64
2022/05/14 01:18:31;;;;;;;7.43;5.33;;;11.80;99.90;;;;;;5073862;28;20424;-70
2022/05/14 01:20:59;;;;;;;15.40;5.67;;;11.90;99.90;;;;;;5052011;28;20400;-63
2022/05/14 01:26:34;;;;;;;11.13;4.70;;;11.80;99.90;;;;;;5051690;28;20403;-69
2022/05/14 01:29:13;;;;;;;10.00;5.40;;;11.90;99.90;;;;;;5052523;28;20395;-70
2022/05/14 01:31:39;;;;;;;6.83;4.80;;;11.90;99.90;;;;;;5068761;28;20469;-70
2022/05/14 01:34:08;;;;;;;8.10;6.90;;;12.00;99.90;;;;;;5072462;28;20901;-70
2022/05/14 01:36:36;;;;;;;6.00;5.37;;;12.00;99.90;;;;;;5071669;28;20419;-69
2022/05/14 01:39:02;;;;;;;8.43;5.67;;;12.00;99.90;;;;;;5072428;28;20399;-70
2022/05/14 01:41:28;;;;;;;8.50;5.20;;;12.10;99.90;;;;;;5071092;28;20511;-63
2022/05/14 01:43:54;;;;;;;10.47;6.57;;;12.10;1.00;;;;;;5072414;28;20412;-62
2022/05/14 01:46:20;;;;;;;10.50;5.73;;;12.20;1.00;;;;;;5071754;27;20187;-70
2022/05/14 01:48:46;;;;;;;10.50;5.90;;;12.20;1.00;;;;;;5071283;27;20194;-62
2022/05/14 01:51:12;;;;;;;9.40;5.60;;;12.20;1.00;;;;;;5066828;28;20400;-63
2022/05/14 01:53:38;;;;;;;8.50;5.90;;;12.30;1.00;;;;;;5052260;28;20725;-71
2022/05/14 01:56:04;;;;;;;7.27;5.70;;;12.40;1.00;;;;;;5052186;28;20447;-70
2022/05/14 01:58:36;;;;;;;17.83;6.33;;;12.40;1.00;;;;;;5051087;28;20429;-63
2022/05/14 02:01:15;;;;;;;9.47;6.10;;;12.40;1.00;;;;;;5061228;28;20399;-64
2022/05/14 02:03:42;;;;;;;12.43;6.27;;;12.40;1.00;;;;;;5071908;27;20389;-70
2022/05/14 02:06:08;;;;;;;10.90;5.73;;;12.50;1.00;;;;;;5070623;28;20428;-62
2022/05/14 02:08:34;;;;;;;9.60;6.97;;;12.50;99.90;;;;;;5071102;27;20587;-62
2022/05/14 02:11:00;;;;;;;13.57;5.50;;;12.50;1.00;;;;;;5070697;28;20231;-62
2022/05/14 02:13:26;;;;;;;13.70;6.10;;;12.60;1.00;;;;;;5072122;27;20400;-69
2022/05/14 02:15:53;;;;;;;6.80;6.10;;;12.60;1.00;;;;;;5071675;28;20276;-70
2022/05/14 02:18:19;;;;;;;9.03;5.50;;;12.60;1.00;;;;;;5070816;28;20483;-63
2022/05/14 02:20:45;;;;;;;6.73;4.87;;;12.60;1.00;;;;;;5066570;28;20495;-69
2022/05/14 02:23:12;;;;;;;18.33;5.80;;;12.60;1.00;;;;;;5050473;28;20799;-62
2022/05/14 02:25:38;;;;;;;16.27;5.63;;;12.50;1.00;;;;;;5051620;28;20406;-70
2022/05/14 02:28:04;;;;;;;12.77;4.70;;;12.50;1.00;;;;;;5050554;28;20949;-63
2022/05/14 02:30:29;;;;;;;8.50;5.20;;;12.50;1.00;;;;;;5050753;27;20535;-62
2022/05/14 02:32:55;;;;;;;5.40;4.83;;;12.60;1.00;;;;;;5051830;28;20182;-62
2022/05/14 02:35:21;;;;;;;13.63;5.70;;;12.60;1.00;;;;;;5051540;28;20244;-63
2022/05/14 02:37:46;;;;;;;7.43;5.13;;;12.60;1.00;;;;;;5050518;28;20183;-71
2022/05/14 02:40:13;;;;;;;7.07;4.63;;;12.70;1.00;;;;;;5051324;28;20171;-63
2022/05/14 02:42:39;;;;;;;11.17;4.47;;;12.70;1.00;;;;;;5071506;28;20245;-62
2022/05/14 02:45:05;;;;;;;7.00;5.70;;;12.70;1.00;;;;;;5071764;28;20459;-63
2022/05/14 02:47:31;;;;;;;11.90;4.90;;;12.70;1.00;;;;;;5070456;28;20181;-62
2022/05/14 02:49:57;;;;;;;6.70;4.90;;;12.70;1.00;;;;;;5071457;28;20376;-63
2022/05/14 02:52:23;;;;;;;14.03;5.90;;;12.70;1.00;;;;;;5052995;27;20187;-63
2022/05/14 02:54:49;;;;;;;13.80;5.97;;;12.70;1.00;;;;;;5051384;28;20167;-62
2022/05/14 02:57:15;;;;;;;6.03;5.03;;;12.70;1.00;;;;;;5049807;28;20453;-63
2022/05/14 02:59:41;;;;;;;9.83;4.83;;;12.70;1.00;;;;;;5050245;27;20380;-62
2022/05/14 03:02:06;;;;;;;14.40;7.57;;;12.80;1.00;;;;;;5066307;28;20905;-63
2022/05/14 03:04:38;;;;;;;7.90;4.50;;;12.80;99.90;;;;;;5071089;28;20211;-70
2022/05/14 03:07:06;;;;;;;9.63;4.33;;;12.80;99.90;;;;;;5068879;27;20190;-63
2022/05/14 03:09:32;;;;;;;9.37;4.40;;;12.80;99.90;;;;;;5070851;28;20441;-62
2022/05/14 03:11:58;;;;;;;23.33;5.30;;;12.70;99.90;;;;;;5069384;28;20815;-63
2022/05/14 03:14:24;;;;;;;9.73;4.97;;;12.80;99.90;;;;;;5070853;27;20379;-63
2022/05/14 03:16:49;;;;;;;6.83;4.33;;;12.70;99.90;;;;;;5069981;28;20255;-62
2022/05/14 03:19:15;;;;;;;17.40;4.67;;;12.70;99.90;;;;;;5070837;27;20234;-63
2022/05/14 03:21:42;;;;;;;11.90;4.30;;;12.80;99.90;;;;;;5069630;28;20230;-63
2022/05/14 03:24:08;;;;;;;15.23;5.47;;;12.80;99.90;;;;;;5070770;28;20367;-70
2022/05/14 03:26:34;;;;;;;13.47;6.47;;;12.80;99.90;;;;;;5069721;28;20890;-70
2022/05/14 03:28:59;;;;;;;13.00;4.20;;;12.80;99.90;;;;;;5070656;27;20404;-70
2022/05/14 03:31:25;;;;;;;6.60;4.33;;;12.80;99.90;;;;;;5068513;27;20182;-69
2022/05/14 03:33:51;;;;;;;12.63;6.00;;;12.80;99.90;;;;;;5070720;28;20174;-71
2022/05/14 03:36:16;;;;;;;9.90;4.23;;;12.80;99.90;;;;;;5070322;27;20204;-70
2022/05/14 03:38:42;;;;;;;5.93;3.90;;;12.80;99.90;;;;;;5068429;27;20656;-70
2022/05/14 03:41:08;;;;;;;15.90;4.50;;;12.80;99.90;;;;;;5069297;27;20175;-63
2022/05/14 03:43:33;;;;;;;14.50;5.03;;;12.80;99.90;;;;;;5070718;27;20219;-70
2022/05/14 03:45:59;;;;;;;10.30;4.80;;;12.80;99.90;;;;;;5070471;28;20219;-70
2022/05/14 03:48:25;;;;;;;11.83;4.47;;;12.80;99.90;;;;;;5069405;28;20221;-63
2022/05/14 03:50:52;;;;;;;10.83;4.63;;;12.80;99.90;;;;;;5068392;27;20438;-70
2022/05/14 03:53:18;;;;;;;15.57;5.17;;;12.90;99.90;;;;;;5070704;28;20165;-63
2022/05/14 03:55:44;;;;;;;9.60;4.10;;;12.80;99.90;;;;;;5070387;28;20419;-63
2022/05/14 03:58:11;;;;;;;16.03;5.43;;;12.90;99.90;;;;;;5069332;28;20555;-68
2022/05/14 04:00:37;;;;;;;16.03;5.60;;;12.90;99.90;;;;;;5069074;28;20477;-69
2022/05/14 04:03:03;;;;;;;10.83;4.83;;;12.90;99.90;;;;;;5070268;28;20375;-71
2022/05/14 04:05:28;;;;;;;11.23;4.80;;;12.90;99.90;;;;;;5068676;27;20197;-66
2022/05/14 04:07:54;;;;;;;10.73;3.90;;;12.90;99.90;;;;;;5068850;27;20403;-63
2022/05/14 04:10:20;;;;;;;10.40;4.83;;;12.90;99.90;;;;;;5069081;27;20225;-70
2022/05/14 04:12:46;;;;;;;15.37;4.90;;;12.90;99.90;;;;;;5072071;27;20311;-69
2022/05/14 04:15:14;;;;;;;12.63;4.80;;;12.90;99.90;;;;;;5073816;28;20467;-70
2022/05/14 04:17:39;;;;;;;6.50;4.00;;;12.90;99.90;;;;;;5072700;28;20455;-70
2022/05/14 04:20:06;;;;;;;13.57;4.97;;;12.80;99.90;;;;;;5072339;27;20407;-70
2022/05/14 04:22:32;;;;;;;4.47;3.80;;;12.80;99.90;;;;;;5073721;28;20177;-71
2022/05/14 04:24:58;;;;;;;9.17;4.57;;;12.90;99.90;;;;;;5073502;28;20412;-63
2022/05/14 04:27:23;;;;;;;11.23;4.57;;;12.90;99.90;;;;;;5072402;27;20409;-62
2022/05/14 04:29:49;;;;;;;8.60;4.37;;;12.80;99.90;;;;;;5072312;28;20182;-63
2022/05/14 04:32:15;;;;;;;19.43;4.00;;;12.80;99.90;;;;;;5073646;27;20180;-70
2022/05/14 04:34:41;;;;;;;19.87;5.07;;;12.80;99.90;;;;;;5073509;27;20185;-62
2022/05/14 04:37:07;;;;;;;11.17;4.77;;;12.90;99.90;;;;;;5069651;27;20655;-70
2022/05/14 04:39:32;;;;;;;9.83;4.73;;;12.80;99.90;;;;;;5073312;28;20435;-70
2022/05/14 04:42:04;;;;;;;9.43;4.57;;;12.90;99.90;;;;;;5073401;27;20242;-70
2022/05/14 04:44:31;;;;;;;12.60;4.20;;;12.90;99.90;;;;;;5073025;28;20695;-63
2022/05/14 04:46:57;;;;;;;9.87;3.60;;;12.90;99.90;;;;;;5070602;28;20502;-71
2022/05/14 04:49:23;;;;;;;13.93;4.13;;;12.90;99.90;;;;;;5072178;28;20494;-70
2022/05/14 04:51:49;;;;;;;9.83;4.20;;;12.90;99.90;;;;;;5071980;27;20671;-62
2022/05/14 04:54:15;;;;;;;13.50;7.30;;;12.90;99.90;;;;;;5072004;27;20226;-63
2022/05/14 04:56:41;;;;;;;12.30;5.10;;;12.90;99.90;;;;;;5070945;28;20206;-62
2022/05/14 04:59:08;;;;;;;14.47;5.57;;;12.80;99.90;;;;;;5057382;28;20435;-64
2022/05/14 05:01:33;;;;;;;8.30;4.43;;;12.90;99.90;;;;;;5052645;28;20872;-62
2022/05/14 05:03:59;;;;;;;9.87;4.30;;;12.90;99.90;;;;;;5053015;28;20402;-70
2022/05/14 05:06:25;;;;;;;9.03;3.90;;;12.90;99.90;;;;;;5052514;28;20273;-70
2022/05/14 05:08:52;;;;;;;9.47;4.10;;;12.90;99.90;;;;;;5072320;27;20194;-70
2022/05/14 05:11:21;;;;;;;11.87;5.17;;;12.90;99.90;;;;;;5072851;28;20377;-63
2022/05/14 05:13:47;;;;;;;10.97;4.90;;;13.10;99.90;;;;;;5072891;28;20737;-70
2022/05/14 05:16:13;;;;;;;8.30;4.47;;;13.20;99.90;;;;;;5072640;27;20438;-70
2022/05/14 05:18:39;;;;;;;15.73;4.47;;;13.20;99.90;;;;;;5069980;28;20202;-70
2022/05/14 05:21:06;;;;;;;5.97;3.77;;;13.30;99.90;;;;;;5072440;27;20379;-70
2022/05/14 05:23:32;;;;;;;7.20;4.30;;;13.40;99.90;;;;;;5071914;28;20376;-70
2022/05/14 05:25:58;;;;;;;9.80;4.30;;;13.40;99.90;;;;;;5072925;27;20435;-70
2022/05/14 05:28:26;;;;;;;12.80;5.43;;;13.40;99.90;;;;;;5056825;28;20256;-63
2022/05/14 05:30:52;;;;;;;11.93;4.50;;;13.40;99.90;;;;;;5052534;28;20388;-63
2022/05/14 05:33:23;;;;;;;11.53;4.43;;;13.40;99.90;;;;;;5052386;28;20920;-69
2022/05/14 05:35:50;;;;;;;12.80;3.90;;;13.30;99.90;;;;;;5052524;28;20474;-71
2022/05/14 05:38:17;;;;;;;15.83;4.30;;;13.40;99.90;;;;;;5061249;28;20471;-70
2022/05/14 05:40:42;;;;;;;12.17;5.13;;;13.50;99.90;;;;;;5071952;28;20891;-71
2022/05/14 05:43:10;;;;;;;8.90;4.30;;;13.50;99.90;;;;;;5072363;28;20384;-62
2022/05/14 05:45:37;;;;;;;8.83;4.77;;;13.50;99.90;;;;;;5072187;28;20194;-63
2022/05/14 05:48:03;;;;;;;13.53;3.93;;;13.50;99.90;;;;;;5069685;28;20441;-70
2022/05/14 05:50:29;;;;;;;8.43;3.97;;;13.60;99.90;;;;;;5072471;28;20379;-69
2022/05/14 05:52:55;;;;;;;4.47;3.50;;;13.60;99.90;;;;;;5072301;28;20409;-69
2022/05/14 05:58:06;;;;;;;8.87;4.23;;;13.50;99.90;;;;;;5070067;28;20200;-62
2022/05/14 06:00:32;;;;;;;11.10;4.70;;;13.60;99.90;;;;;;5070391;27;20766;-70
2022/05/14 06:02:59;;;;;;;15.80;5.20;;;13.70;99.90;;;;;;5072188;28;20397;-71
2022/05/14 06:05:26;;;;;;;13.27;4.63;;;13.80;99.90;;;;;;5072053;28;20433;-63
2022/05/14 06:07:52;;;;;;;11.03;4.10;;;13.80;99.90;;;;;;5069607;28;20853;-71
2022/05/14 06:10:20;;;;;;;9.23;4.20;;;13.80;99.90;;;;;;5072003;28;20431;-63
2022/05/14 06:12:46;;;;;;;18.93;4.63;;;13.80;99.90;;;;;;5071983;28;20466;-70
2022/05/14 06:15:16;;;;;;;7.90;3.23;;;13.80;99.90;;;;;;5072018;28;20454;-70
2022/05/14 06:17:43;;;;;;;9.40;5.20;;;13.80;99.90;;;;;;5052879;28;20800;-63
2022/05/14 06:20:12;;;;;;;14.43;4.07;;;13.80;99.90;;;;;;5071793;28;20394;-63
2022/05/14 06:22:38;;;;;;;16.00;5.27;;;13.70;99.90;;;;;;5054016;28;20722;-70
2022/05/14 06:25:06;;;;;;;18.77;5.37;;;13.80;99.90;;;;;;5051757;28;20534;-72
2022/05/14 06:27:32;;;;;;;17.83;5.67;;;13.70;99.90;;;;;;5065340;28;20395;-62
2022/05/14 06:29:57;;;;;;;11.90;4.43;;;13.80;99.90;;;;;;5070577;27;20749;-63
2022/05/14 06:32:23;;;;;;;12.23;5.40;;;13.90;99.90;;;;;;5057135;27;20187;-71
2022/05/14 06:34:49;;;;;;;22.70;5.27;;;14.00;99.90;;;;;;5049890;28;20630;-63
2022/05/14 06:37:14;;;;;;;17.03;4.80;;;14.10;99.90;;;;;;5061522;28;20206;-64
2022/05/14 06:39:42;;;;;;;8.93;4.17;;;14.20;99.90;;;;;;5070129;27;20778;-71
2022/05/14 06:42:08;;;;;;;19.47;5.07;;;14.30;99.90;;;;;;5060360;28;20220;-73
2022/05/14 06:44:34;;;;;;;12.93;6.30;;;14.20;99.90;;;;;;5050394;28;20399;-65
2022/05/14 06:46:59;;;;;;;16.20;5.00;;;14.30;99.90;;;;;;5059271;28;20789;-71
2022/05/14 06:49:25;;;;;;;13.33;4.00;;;14.30;99.90;;;;;;5069588;27;20240;-64
2022/05/14 06:51:54;;;;;;;16.47;4.93;;;14.20;99.90;;;;;;5063593;28;20189;-65
2022/05/14 06:54:21;;;;;;;10.83;4.07;;;14.30;99.90;;;;;;5050253;28;20231;-75
2022/05/14 06:56:47;;;;;;;10.13;3.73;;;14.40;99.90;;;;;;5055733;28;20427;-75
2022/05/14 06:59:14;;;;;;;6.93;3.93;;;14.40;99.90;;;;;;5056836;28;20457;-75
2022/05/14 07:01:43;;;;;;;11.03;4.13;;;14.60;99.90;;;;;;5067306;28;20407;-64
2022/05/14 07:06:57;;;;;;;9.67;3.70;;;14.60;99.90;;;;;;5056953;28;20432;-65
2022/05/14 07:09:29;;;;;;;6.37;4.17;;;14.70;99.90;;;;;;5069791;27;20995;-76
2022/05/14 07:11:58;;;;;;;12.27;4.10;;;14.70;99.90;;;;;;5068225;28;20627;-65
2022/05/14 07:14:25;;;;;;;14.13;4.73;;;14.70;99.90;;;;;;5055053;27;20506;-65
2022/05/14 07:16:53;;;;;;;12.30;4.60;;;14.80;99.90;;;;;;5050091;28;20591;-74
2022/05/14 07:19:19;;;;;;;16.17;5.30;;;14.70;99.90;;;;;;5070753;28;20406;-63
2022/05/14 07:21:47;;;;;;;8.50;4.10;;;14.60;99.90;;;;;;5070838;28;20431;-63
2022/05/14 07:24:33;;;;;;;5.87;4.00;;;14.60;99.90;;;;;;5056434;28;20428;-65
2022/05/14 07:27:03;;;;;;;6.87;3.47;;;14.60;99.90;;;;;;5068950;28;20427;-71
2022/05/14 07:29:30;;;;;;;10.43;3.77;;;14.70;99.90;;;;;;5057939;28;20423;-65
2022/05/14 07:31:56;;;;;;;10.77;4.30;;;14.80;99.90;;;;;;5050358;28;20376;-72
2022/05/14 07:34:22;;;;;;;8.43;3.40;;;14.80;99.90;;;;;;5058625;28;20486;-71
2022/05/14 07:36:54;;;;;;;8.27;3.70;;;14.70;99.90;;;;;;5063448;28;20492;-71
2022/05/14 07:39:23;;;;;;;16.80;3.73;;;14.90;99.90;;;;;;5050599;28;20433;-71
2022/05/14 07:41:53;;;;;;;12.90;3.90;;;15.10;99.90;;;;;;5055700;28;20417;-63
2022/05/14 07:44:21;;;;;;;10.10;4.00;;;15.20;99.90;;;;;;5056987;28;20404;-72
2022/05/14 07:46:49;;;;;;;6.10;3.20;;;15.30;99.90;;;;;;5052783;28;20416;-70
2022/05/14 07:49:16;;;;;;;12.73;3.80;;;15.20;99.90;;;;;;5070483;28;20451;-73
2022/05/14 07:51:42;;;;;;;9.40;3.73;;;15.20;99.90;;;;;;5067000;28;20414;-71
2022/05/14 07:54:08;;;;;;;7.03;3.30;;;15.30;99.90;;;;;;5068283;28;20498;-63
2022/05/14 08:16:27;;;;;;;11.10;3.40;;;15.30;99.90;;;;;;5069973;28;20561;-69
2022/05/14 08:18:53;;;;;;;9.00;3.80;;;15.50;99.90;;;;;;5056743;28;20423;-62
2022/05/14 08:24:35;;;;;;;12.80;2.97;;;15.90;99.90;;;;;;5047991;28;20195;-61
2022/05/14 08:27:07;;;;;;;7.10;3.47;;;16.10;99.90;;;;;;5049237;28;20387;-63
2022/05/14 08:29:34;;;;;;;8.47;4.03;;;16.00;99.90;;;;;;5050506;28;20936;-64
2022/05/14 08:32:00;;;;;;;11.40;3.50;;;16.10;99.90;;;;;;5050132;28;20384;-64
2022/05/14 08:34:26;;;;;;;6.63;2.77;;;16.20;99.90;;;;;;5049593;28;20511;-64
2022/05/14 08:36:51;;;;;;;16.57;4.53;;;16.30;99.90;;;;;;5049148;28;20756;-66
2022/05/14 08:39:17;;;;;;;14.73;3.70;;;16.20;99.90;;;;;;5050254;28;20504;-70
2022/05/14 08:41:47;;;;;;;12.47;3.90;;;16.10;99.90;;;;;;5049573;28;20175;-64
2022/05/14 08:44:27;;;;;;;7.03;3.47;;;16.10;99.90;;;;;;5050463;28;20178;-71
2022/05/14 08:46:56;;;;;;;11.90;3.17;;;15.90;99.90;;;;;;5047805;28;20508;-64
2022/05/14 08:49:33;;;;;;;12.67;3.10;;;15.80;99.90;;;;;;5050105;28;20984;-71
2022/05/14 08:52:00;;;;;;;9.23;2.90;;;15.90;99.90;;;;;;5049225;28;20424;-64
2022/05/14 08:54:27;;;;;;;18.40;4.60;;;15.90;99.90;;;;;;5049980;28;20514;-64
2022/05/14 08:57:24;;;;;;;9.70;3.47;;;16.00;99.90;;;;;;5048900;28;20842;-65
2022/05/14 08:59:55;;;;;;;7.53;3.30;;;16.00;99.90;;;;;;5047759;28;20408;-72
2022/05/14 09:02:46;;;;;;;9.30;3.43;;;16.20;99.90;;;;;;5050104;28;20377;-62
2022/05/14 09:05:11;;;;;;;7.87;3.10;;;16.20;99.90;;;;;;5044853;28;20845;-71
2022/05/14 09:07:38;;;;;;;10.17;4.47;;;16.30;99.90;;;;;;5048874;28;20517;-72
2022/05/14 09:10:06;;;;;;;5.00;2.87;;;16.40;99.90;;;;;;5049968;28;20179;-62
2022/05/14 09:12:34;;;;;;;12.03;3.50;;;16.60;99.90;;;;;;5049778;28;20420;-73
2022/05/14 09:15:12;;;;;;;12.27;3.40;;;16.40;99.90;;;;;;5048368;28;20465;-64
2022/05/14 09:17:38;;;;;;;8.93;3.33;;;16.60;99.90;;;;;;5048598;28;20433;-70
2022/05/14 09:20:04;;;;;;;7.83;4.60;;;16.90;99.90;;;;;;5049464;28;20398;-71
2022/05/14 09:22:47;;;;;;;11.17;3.00;;;17.00;99.90;;;;;;5049647;28;20170;-71
2022/05/14 09:25:36;;;;;;;12.03;3.20;;;16.80;99.90;;;;;;5049198;28;20900;-71
2022/05/14 09:28:08;;;;;;;5.40;2.80;;;16.50;99.90;;;;;;5034880;28;20436;-62
2022/05/14 09:30:40;;;;;;;6.47;3.07;;;16.60;99.90;;;;;;5034885;28;20421;-63
2022/05/14 09:33:09;;;;;;;9.70;3.40;;;16.80;99.90;;;;;;5035559;28;20497;-62
2022/05/14 09:35:37;;;;;;;8.30;3.67;;;17.20;99.90;;;;;;5035082;28;20497;-73
2022/05/14 09:38:21;;;;;;;3.60;2.47;;;17.60;99.90;;;;;;5035132;28;20450;-75
2022/05/14 09:40:47;;;;;;;9.07;2.63;;;17.70;99.90;;;;;;5034500;28;20411;-73
2022/05/14 09:43:15;;;;;;;5.47;2.47;;;17.60;99.90;;;;;;5035918;28;20417;-73
2022/05/14 09:45:58;;;;;;;6.17;2.57;;;17.90;99.90;;;;;;5035548;28;20172;-72
2022/05/14 09:48:34;;;;;;;9.30;4.13;;;17.90;99.90;;;;;;5033445;28;20855;-73
2022/05/14 09:51:04;;;;;;;6.97;3.00;;;17.90;99.90;;;;;;5035669;28;20417;-73
2022/05/14 09:53:40;;;;;;;5.47;2.93;;;18.40;99.90;;;;;;5032738;28;20499;-65
2022/05/14 09:56:38;;;;;;;5.57;2.90;;;18.70;99.90;;;;;;5035295;28;20454;-64
2022/05/14 09:59:54;;;;;;;14.90;4.10;;;19.10;99.90;;;;;;5035481;28;20472;-72
2022/05/14 10:02:25;;;;;;;6.23;2.90;;;19.20;99.90;;;;;;5034486;28;20417;-64
2022/05/14 10:05:18;;;;;;;5.03;2.63;;;19.20;99.90;;;;;;5034929;28;20414;-64
2022/05/14 10:07:54;;;;;;;8.40;3.03;;;19.10;99.90;;;;;;5033565;28;20588;-64
2022/05/14 10:10:36;;;;;;;7.37;2.90;;;19.00;99.90;;;;;;5035424;28;20429;-71
2022/05/14 10:13:21;;;;;;;10.43;2.67;;;18.80;99.90;;;;;;5035559;28;20497;-70
2022/05/14 10:16:14;;;;;;;10.67;3.13;;;18.90;99.90;;;;;;5034863;28;20540;-72
2022/05/14 10:19:15;;;;;;;7.37;3.03;;;19.00;98.80;;;;;;5034459;28;20418;-70
2022/05/14 10:22:17;;;;;;;5.90;2.60;;;19.30;99.90;;;;;;5015087;28;20411;-61
2022/05/14 10:28:14;;;;;;;14.20;3.50;;;19.40;98.30;;;;;;5033284;28;20523;-72
2022/05/14 10:30:56;;;;;;;4.57;2.70;;;19.60;95.50;;;;;;5034881;28;20418;-61
2022/05/14 10:33:27;;;;;;;6.23;3.10;;;19.40;95.50;;;;;;5035123;28;20434;-61
2022/05/14 10:35:57;;;;;;;8.83;2.70;;;19.20;95.40;;;;;;5034063;28;20454;-61
2022/05/14 10:38:45;;;;;;;5.97;2.90;;;19.50;95.60;;;;;;5033062;28;20422;-71
2022/05/14 10:41:16;;;;;;;7.00;2.90;;;19.90;95.70;;;;;;5020750;28;20438;-71
2022/05/14 10:43:49;;;;;;;9.00;3.10;;;19.50;95.50;;;;;;5034546;28;20917;-63
2022/05/14 10:46:21;;;;;;;6.37;3.20;;;18.60;95.20;;;;;;5034599;28;20413;-68
2022/05/14 10:48:56;;;;;;;8.93;3.30;;;18.10;95.00;;;;;;5033864;28;20433;-68
2022/05/14 10:51:24;;;;;;;17.43;4.03;;;17.90;94.90;;;;;;5014960;28;20457;-70
2022/05/14 10:53:51;;;;;;;7.80;3.43;;;17.70;94.80;;;;;;5014758;28;20469;-67
2022/05/14 10:56:23;;;;;;;6.90;2.60;;;17.90;94.90;;;;;;5033824;28;20445;-68
2022/05/14 10:59:04;;;;;;;4.47;2.77;;;18.40;95.10;;;;;;5032503;28;20453;-61
2022/05/14 11:01:32;;;;;;;14.23;3.00;;;18.50;95.20;;;;;;5049518;28;20934;-68
2022/05/14 11:04:21;;;;;;;9.03;3.50;;;18.50;95.10;;;;;;5014571;28;20499;-70
2022/05/14 11:06:54;;;;;;;6.70;2.60;;;18.80;95.30;;;;;;5028744;28;20921;-61
2022/05/14 11:09:32;;;;;;;9.50;3.10;;;18.60;95.20;;;;;;5034425;28;20511;-62
2022/05/14 11:12:03;;;;;;;3.53;2.30;;;19.00;95.30;;;;;;5033610;28;20417;-63
2022/05/14 11:14:41;;;;;;;9.37;4.57;;;19.70;95.60;;;;;;5013962;28;20462;-69
2022/05/14 11:17:26;;;;;;;9.97;2.10;;;19.60;95.50;;;;;;5022245;28;20402;-69
2022/05/14 11:20:02;;;;;;;6.07;3.03;;;19.00;95.30;;;;;;5034211;28;20485;-62
2022/05/14 11:22:31;;;;;;;7.00;2.93;;;18.60;95.20;;;;;;5033037;28;20480;-70
2022/05/14 11:25:21;;;;;;;7.63;2.63;;;18.30;95.10;;;;;;5032855;28;20429;-68
2022/05/14 11:27:57;;;;;;;3.57;1.87;;;17.80;91.90;;;;;;5032208;28;20446;-70
2022/05/14 11:30:34;;;;;;;7.30;2.50;;;17.70;94.90;;;;;;5033548;28;20497;-69
2022/05/14 11:33:01;;;;;;;3.43;2.13;;;17.80;94.90;;;;;;5033662;28;20426;-67
2022/05/14 11:35:44;;;;;;;3.40;2.77;;;18.30;95.10;;;;;;5033822;28;20450;-67
2022/05/14 11:38:24;;;;;;;2.80;2.57;;;19.20;90.70;;;;;;5031371;28;20838;-69
2022/05/14 11:40:57;;;;;;;5.80;1.83;;;19.90;91.00;;;;;;5033486;28;20421;-69
2022/05/14 11:43:30;;;;;;;6.97;2.00;;;21.20;81.90;;;;;;5033548;28;20431;-61
2022/05/14 11:46:22;;;;;;;3.23;1.47;;;21.90;73.20;;;;;;5033364;28;20463;-62
2022/05/14 11:48:58;;;;;;;5.93;1.90;;;22.30;65.90;;;;;;5031758;28;20458;-68
2022/05/14 11:51:38;;;;;;;1.80;1.60;;;22.20;56.00;;;;;;5031188;28;20517;-62
2022/05/14 11:54:29;;;;;;;3.83;1.97;;;22.20;54.10;;;;;;5032019;28;20422;-69
2022/05/14 11:57:08;;;;;;;3.27;1.50;;;22.00;44.10;;;;;;5013012;28;20477;-62
2022/05/14 11:59:48;;;;;;;4.97;1.30;;;22.10;42.40;;;;;;5015566;28;20831;-62
2022/05/14 12:02:22;;;;;;;4.20;1.67;;;22.00;41.40;;;;;;5033598;28;20413;-62
2022/05/14 12:04:54;;;;;;;4.93;1.57;;;21.80;32.60;;;;;;5033048;28;20445;-64
2022/05/14 12:07:47;;;;;;;2.83;1.40;;;21.50;35.60;;;;;;5032668;28;20409;-68
2022/05/14 12:10:24;;;;;;;2.50;1.57;;;21.90;31.10;;;;;;5033073;28;20869;-69
2022/05/14 12:12:50;;;;;;;2.40;1.70;;;22.70;32.40;;;;;;5032237;28;21035;-71
2022/05/14 12:15:22;;;;;;;4.63;1.60;;;23.00;28.30;;;;;;5033029;28;20454;-63
2022/05/14 12:17:55;;;;;;;2.80;1.40;;;23.00;23.10;;;;;;5032441;28;20230;-63
2022/05/14 12:20:25;;;;;;;2.00;1.30;;;23.20;21.80;;;;;;5033067;28;20421;-71
2022/05/14 12:22:54;;;;;;;2.53;1.77;;;23.00;21.60;;;;;;5033338;28;20482;-72
2022/05/14 12:25:20;;;;;;;4.53;1.57;;;23.40;18.80;;;;;;5033063;28;20453;-63
2022/05/14 12:27:50;;;;;;;5.47;1.20;;;24.20;19.00;;;;;;5030898;28;20465;-63
2022/05/14 12:33:20;;;;;;;4.70;1.50;;;24.70;7.30;;;;;;5033501;28;20437;-72
2022/05/14 12:35:55;;;;;;;1.80;1.33;;;24.90;2.80;;;;;;5024799;28;20481;-63
2022/05/14 12:38:31;;;;;;;8.93;2.00;;;24.90;1.00;;;;;;5012513;28;20421;-70
2022/05/14 12:40:57;;;;;;;4.10;1.60;;;24.20;1.00;;;;;;5025786;28;20414;-72
2022/05/14 12:43:23;;;;;;;9.27;2.47;;;23.80;1.00;;;;;;5029007;28;20484;-63
2022/05/14 12:46:10;;;;;;;3.87;1.47;;;23.70;1.00;;;;;;5012382;28;20403;-70
2022/05/14 12:48:48;;;;;;;2.80;1.57;;;24.00;1.00;;;;;;5024416;28;21052;-70
2022/05/14 12:51:25;;;;;;;3.97;1.80;;;24.00;1.00;;;;;;5031783;28;20445;-63
2022/05/14 12:53:52;;;;;;;3.87;1.80;;;23.90;1.00;;;;;;5031951;28;20767;-70
2022/05/14 12:56:21;;;;;;;5.17;2.20;;;23.10;1.00;;;;;;5032261;28;20453;-70
2022/05/14 12:58:47;;;;;;;3.03;1.37;;;22.70;1.00;;;;;;5031728;28;20964;-69
2022/05/14 13:01:17;;;;;;;2.90;1.60;;;21.90;1.00;;;;;;5032321;28;20449;-69
2022/05/14 13:04:00;;;;;;;4.60;1.30;;;21.90;1.00;;;;;;5036046;28;21176;-63
2022/05/14 13:06:34;;;;;;;4.33;1.30;;;21.70;1.00;;;;;;5036588;28;20983;-64
2022/05/14 13:09:05;;;;;;;1.67;1.37;;;21.70;1.00;;;;;;5036183;28;20434;-69
2022/05/14 13:11:33;;;;;;;2.30;1.63;;;21.50;1.00;;;;;;5036497;28;20402;-63
2022/05/14 13:14:21;;;;;;;2.13;1.40;;;21.40;1.00;;;;;;5036328;28;20425;-69
2022/05/14 13:16:58;;;;;;;2.30;1.50;;;21.20;1.00;;;;;;5035529;28;20422;-64
2022/05/14 13:19:36;;;;;;;4.23;1.57;;;21.10;1.00;;;;;;5034144;28;20790;-69
2022/05/14 13:22:04;;;;;;;2.20;1.43;;;20.80;1.00;;;;;;5051521;28;20406;-65
2022/05/14 13:24:34;;;;;;;3.20;1.43;;;21.00;1.00;;;;;;5036123;28;20475;-61
2022/05/14 13:27:03;;;;;;;1.80;1.43;;;21.10;1.00;;;;;;5035405;28;20778;-69
2022/05/14 13:29:37;;;;;;;7.50;1.90;;;21.20;1.00;;;;;;5036050;28;20502;-62
2022/05/14 13:32:11;;;;;;;2.17;1.50;;;21.30;1.00;;;;;;5036396;28;20474;-62
2022/05/14 13:37:29;;;;;;;3.20;1.07;;;21.20;1.00;;;;;;5035291;28;20484;-67
2022/05/14 13:39:59;;;;;;;3.57;1.37;;;21.30;1.00;;;;;;5036096;28;20407;-69
2022/05/14 13:42:57;;;;;;;5.80;1.50;;;21.40;1.00;;;;;;5035628;28;20405;-61
2022/05/14 13:45:34;;;;;;;1.97;1.40;;;22.20;1.00;;;;;;5027881;28;20457;-68